Time;durP1;ratioP1;P1;durP2;ratioP2;P2;SDS_P1;SDS_P2;PMS_P1;PMS_P2;Temp;Humidity;BMP_temperature;BMP_pressure;BME280_temperature;BME280_humidity;BME280_pressure;Samples;Min_cycle;Max_cycle;Signal;HPM_P1;HPM_P2
2023/09/09 00:01:50;;;;;;;0.00;0.00;;;;;;;18.38;85.60;100527.66;5054883;28;20622;-79
2023/09/09 00:04:15;;;;;;;0.00;0.00;;;;;;;18.46;85.52;100528.59;5054565;28;20673;-78
2023/09/09 00:06:41;;;;;;;0.00;0.00;;;;;;;18.42;85.17;100527.72;5054820;28;20214;-79
2023/09/09 00:09:06;;;;;;;0.40;0.40;;;;;;;18.37;84.92;100533.53;5055408;28;20240;-78
2023/09/09 00:11:32;;;;;;;0.00;0.00;;;;;;;18.30;84.86;100528.66;5055282;28;20251;-79
2023/09/09 00:13:57;;;;;;;0.00;0.00;;;;;;;18.30;85.09;100536.94;5054177;28;20190;-78
2023/09/09 00:16:22;;;;;;;0.00;0.00;;;;;;;18.34;85.30;100539.78;5055340;28;20203;-78
2023/09/09 00:18:48;;;;;;;0.00;0.00;;;;;;;18.47;84.96;100546.81;5048899;28;20275;-79
2023/09/09 00:21:14;;;;;;;0.00;0.00;;;;;;;18.61;84.80;100549.06;5043383;28;20184;-79
2023/09/09 00:23:39;;;;;;;0.00;0.00;;;;;;;18.73;85.19;100551.75;5044664;28;20179;-80
2023/09/09 00:26:05;;;;;;;0.00;0.00;;;;;;;18.78;84.33;100551.44;5053725;28;20206;-78
2023/09/09 00:28:30;;;;;;;0.00;0.00;;;;;;;18.67;83.29;100539.38;5050233;28;20217;-79
2023/09/09 00:30:55;;;;;;;0.00;0.00;;;;;;;18.58;83.14;100527.66;5043618;28;20181;-78
2023/09/09 00:33:21;;;;;;;0.10;0.10;;;;;;;18.58;83.23;100538.75;5053574;28;20790;-79
2023/09/09 00:35:46;;;;;;;0.73;0.73;;;;;;;18.63;83.11;100539.28;5054322;28;20190;-78
2023/09/09 00:38:13;;;;;;;0.00;0.00;;;;;;;18.68;82.74;100539.00;5054215;28;20190;-78
2023/09/09 00:40:42;;;;;;;0.00;0.00;;;;;;;18.72;82.17;100539.06;5054583;28;20270;-79
2023/09/09 00:43:08;;;;;;;0.93;0.93;;;;;;;18.58;81.77;100531.25;5048966;28;20326;-78
2023/09/09 00:45:33;;;;;;;0.00;0.00;;;;;;;18.54;81.95;100526.81;5049173;28;20555;-78
2023/09/09 00:47:58;;;;;;;0.00;0.00;;;;;;;18.49;82.43;100529.84;5054665;28;20205;-79
2023/09/09 00:50:24;;;;;;;0.40;0.40;;;;;;;18.31;82.58;100533.03;5054741;28;20182;-78
2023/09/09 00:52:49;;;;;;;0.20;0.20;;;;;;;18.07;84.19;100527.72;5053714;28;20187;-79
2023/09/09 00:55:15;;;;;;;0.70;0.70;;;;;;;17.81;85.65;100520.81;5053920;28;20281;-78
2023/09/09 00:57:40;;;;;;;0.10;0.10;;;;;;;17.67;87.00;100530.69;5053794;28;20185;-78
2023/09/09 01:00:09;;;;;;;0.00;0.00;;;;;;;17.70;88.16;100538.31;5045658;28;20184;-78
2023/09/09 01:02:41;;;;;;;0.00;0.00;;;;;;;17.80;89.00;100541.34;5052806;28;20183;-80
2023/09/09 01:05:08;;;;;;;0.00;0.00;;;;;;;17.60;88.88;100523.03;5054111;28;20191;-80
2023/09/09 01:07:49;;;;;;;0.00;0.00;;;;;;;17.58;89.29;100530.88;5054048;28;20187;-80
2023/09/09 01:10:18;;;;;;;0.90;0.90;;;;;;;17.62;89.64;100540.03;5053756;28;20210;-80
2023/09/09 01:12:44;;;;;;;0.50;0.50;;;;;;;17.50;90.06;100532.66;5053364;28;20186;-79
2023/09/09 01:15:10;;;;;;;0.30;0.30;;;;;;;17.45;90.29;100532.09;5053933;28;20199;-80
2023/09/09 01:17:37;;;;;;;0.00;0.00;;;;;;;17.35;90.58;100533.41;5052635;28;20179;-79
2023/09/09 01:20:14;;;;;;;0.77;0.77;;;;;;;17.41;90.93;100539.50;5053519;28;20190;-80
2023/09/09 01:22:44;;;;;;;0.27;0.20;;;;;;;17.41;90.80;100545.03;5053822;28;20254;-80
2023/09/09 01:25:11;;;;;;;0.43;0.43;;;;;;;17.17;90.89;100537.69;5054108;28;20223;-80
2023/09/09 01:27:37;;;;;;;0.87;0.87;;;;;;;16.88;92.32;100530.56;5053912;28;20258;-79
2023/09/09 01:30:03;;;;;;;0.10;0.10;;;;;;;16.88;93.35;100539.66;5053520;28;20202;-79
2023/09/09 01:32:28;;;;;;;0.53;0.53;;;;;;;16.77;94.33;100543.25;5054108;28;20183;-80
2023/09/09 01:34:54;;;;;;;0.00;0.00;;;;;;;16.78;95.22;100540.19;5054197;28;20207;-80
2023/09/09 01:37:19;;;;;;;0.20;0.20;;;;;;;16.76;95.50;100545.22;5054072;28;20688;-80
2023/09/09 01:39:45;;;;;;;0.33;0.33;;;;;;;16.80;95.35;100545.34;5053306;28;20534;-79
2023/09/09 01:42:10;;;;;;;0.10;0.10;;;;;;;16.80;95.44;100546.16;5053426;28;20215;-79
2023/09/09 01:44:36;;;;;;;0.33;0.33;;;;;;;16.79;95.34;100546.50;5053337;28;20659;-79
2023/09/09 01:47:01;;;;;;;0.20;0.10;;;;;;;16.73;94.85;100542.38;5052284;28;20295;-79
2023/09/09 01:49:27;;;;;;;1.13;1.13;;;;;;;16.65;95.09;100544.09;5053157;28;20187;-79
2023/09/09 01:51:52;;;;;;;0.53;0.53;;;;;;;16.69;95.49;100549.75;5053590;28;20187;-79
2023/09/09 01:54:17;;;;;;;0.50;0.50;;;;;;;16.71;95.35;100555.72;5053844;28;20592;-79
2023/09/09 01:56:43;;;;;;;0.00;0.00;;;;;;;16.85;95.05;100556.91;5053374;28;20279;-79
2023/09/09 01:59:08;;;;;;;0.00;0.00;;;;;;;16.91;94.60;100558.25;5053574;28;20673;-79
2023/09/09 02:01:33;;;;;;;0.07;0.07;;;;;;;16.88;93.96;100549.91;5053808;28;20207;-80
2023/09/09 02:03:58;;;;;;;0.00;0.00;;;;;;;16.91;93.68;100560.22;5052989;28;20191;-80
2023/09/09 02:06:26;;;;;;;0.00;0.00;;;;;;;16.93;93.91;100563.47;5053374;28;20195;-80
2023/09/09 02:08:52;;;;;;;0.00;0.00;;;;;;;16.99;93.81;100564.00;5053714;28;20688;-80
2023/09/09 02:11:17;;;;;;;0.00;0.00;;;;;;;17.04;93.80;100567.31;5053465;28;20175;-80
2023/09/09 02:13:42;;;;;;;0.00;0.00;;;;;;;17.05;93.18;100568.09;5052970;28;20207;-78
2023/09/09 02:16:08;;;;;;;0.00;0.00;;;;;;;17.11;92.50;100563.94;5052250;28;20351;-78
2023/09/09 02:18:37;;;;;;;0.00;0.00;;;;;;;17.20;92.23;100568.13;5052303;28;20642;-78
2023/09/09 02:21:03;;;;;;;1.33;1.33;;;;;;;17.27;91.69;100572.28;5051472;28;20184;-78
2023/09/09 02:23:29;;;;;;;0.00;0.00;;;;;;;17.25;90.97;100575.38;5052715;28;20258;-78
2023/09/09 02:25:55;;;;;;;0.20;0.20;;;;;;;17.05;91.50;100568.91;5052124;28;20279;-78
2023/09/09 02:28:20;;;;;;;0.00;0.00;;;;;;;17.06;91.62;100573.28;5052042;28;20264;-79
2023/09/09 02:30:45;;;;;;;0.00;0.00;;;;;;;16.98;91.66;100570.69;5051167;28;20241;-78
2023/09/09 02:33:11;;;;;;;0.73;0.37;;;;;;;16.82;91.94;100565.09;5053146;28;20183;-78
2023/09/09 02:35:41;;;;;;;0.43;0.43;;;;;;;16.67;92.90;100563.88;5055329;28;20206;-79
2023/09/09 02:38:07;;;;;;;0.17;0.17;;;;;;;16.60;93.90;100558.13;5055328;28;20183;-78
2023/09/09 02:40:32;;;;;;;0.50;0.50;;;;;;;16.58;94.79;100558.47;5055139;28;20189;-78
2023/09/09 02:42:57;;;;;;;0.37;0.37;;;;;;;16.54;95.75;100562.28;5055141;28;20675;-78
2023/09/09 02:45:23;;;;;;;0.20;0.20;;;;;;;16.56;96.20;100563.53;5055041;28;20199;-78
2023/09/09 02:47:48;;;;;;;0.00;0.00;;;;;;;16.35;96.35;100558.19;5054907;28;20191;-78
2023/09/09 02:50:13;;;;;;;0.10;0.10;;;;;;;16.46;96.28;100561.25;5054768;28;20658;-78
2023/09/09 02:52:39;;;;;;;0.50;0.50;;;;;;;16.39;96.39;100563.81;5053931;28;20194;-78
2023/09/09 02:55:04;;;;;;;0.00;0.00;;;;;;;16.12;96.87;100554.31;5054657;28;20199;-78
2023/09/09 02:57:30;;;;;;;0.30;0.30;;;;;;;16.17;98.03;100567.03;5053419;28;20191;-78
2023/09/09 02:59:55;;;;;;;0.00;0.00;;;;;;;16.24;98.66;100570.03;5054353;28;20179;-78
2023/09/09 03:02:20;;;;;;;0.10;0.10;;;;;;;16.32;98.66;100572.66;5054684;28;20708;-78
2023/09/09 03:04:46;;;;;;;0.70;0.67;;;;;;;16.37;98.54;100574.38;5053850;28;20571;-78
2023/09/09 03:07:11;;;;;;;0.20;0.20;;;;;;;16.45;97.93;100570.69;5055717;28;20546;-78
2023/09/09 03:09:37;;;;;;;0.57;0.57;;;;;;;16.36;97.49;100559.78;5055085;28;20187;-78
2023/09/09 03:12:03;;;;;;;0.00;0.00;;;;;;;16.38;97.15;100578.75;5050247;28;20370;-78
2023/09/09 03:14:29;;;;;;;2.67;1.17;;;;;;;16.40;97.18;100568.16;5055421;28;20198;-78
2023/09/09 03:16:54;;;;;;;0.10;0.10;;;;;;;16.25;97.51;100572.44;5055377;28;20195;-79
2023/09/09 03:19:19;;;;;;;0.10;0.10;;;;;;;16.23;97.73;100568.44;5054742;28;20179;-78
2023/09/09 03:21:46;;;;;;;0.00;0.00;;;;;;;16.28;97.88;100570.94;5055598;28;20195;-78
2023/09/09 03:24:12;;;;;;;0.00;0.00;;;;;;;16.27;98.25;100561.06;5055937;28;20649;-79
2023/09/09 03:26:37;;;;;;;0.00;0.00;;;;;;;16.32;98.87;100577.34;5055908;28;20211;-78
2023/09/09 03:29:02;;;;;;;0.00;0.00;;;;;;;16.42;98.85;100582.41;5055852;28;20187;-80
2023/09/09 03:31:28;;;;;;;0.00;0.00;;;;;;;16.56;98.59;100577.31;5055162;28;20187;-80
2023/09/09 03:33:53;;;;;;;0.00;0.00;;;;;;;16.57;97.63;100578.94;5054920;28;20265;-80
2023/09/09 03:36:18;;;;;;;0.00;0.00;;;;;;;16.32;96.63;100564.38;5054143;28;20279;-80
2023/09/09 03:38:44;;;;;;;0.70;0.70;;;;;;;16.22;96.94;100559.34;5055848;28;20187;-80
2023/09/09 03:41:09;;;;;;;0.10;0.10;;;;;;;16.10;96.65;100569.59;5055584;28;20292;-80
2023/09/09 03:43:35;;;;;;;0.17;0.17;;;;;;;16.05;97.41;100562.34;5055590;28;20191;-79
2023/09/09 03:46:00;;;;;;;0.00;0.00;;;;;;;16.13;97.56;100571.66;5055405;28;20206;-79
2023/09/09 03:48:26;;;;;;;0.00;0.00;;;;;;;16.27;98.06;100572.91;5055885;28;20198;-79
2023/09/09 03:50:56;;;;;;;0.30;0.30;;;;;;;16.31;97.97;100582.06;5055698;28;20187;-80
2023/09/09 03:53:21;;;;;;;0.23;0.13;;;;;;;16.31;97.67;100579.31;5055756;28;20691;-80
2023/09/09 03:55:46;;;;;;;0.00;0.00;;;;;;;16.28;97.37;100576.47;5053761;28;20203;-80
2023/09/09 03:58:11;;;;;;;0.00;0.00;;;;;;;16.31;97.35;100581.28;5055109;28;20190;-80
2023/09/09 04:00:37;;;;;;;0.10;0.10;;;;;;;16.18;97.03;100572.19;5055071;28;20186;-79
2023/09/09 04:03:02;;;;;;;3.53;0.63;;;;;;;16.14;97.40;100570.50;5055087;28;20187;-80
2023/09/09 04:05:27;;;;;;;1.07;1.07;;;;;;;16.10;97.51;100575.09;5055088;28;20203;-80
2023/09/09 04:07:53;;;;;;;0.00;0.00;;;;;;;16.17;98.08;100583.59;5053932;28;20198;-80
2023/09/09 04:10:18;;;;;;;0.00;0.00;;;;;;;16.23;97.73;100583.00;5054942;28;20198;-80
2023/09/09 04:12:43;;;;;;;0.00;0.00;;;;;;;16.08;97.76;100572.69;5055204;28;20637;-79
2023/09/09 04:15:10;;;;;;;2.17;0.73;;;;;;;16.03;98.09;100584.72;5054840;28;20227;-80
2023/09/09 04:17:35;;;;;;;0.10;0.10;;;;;;;16.06;98.25;100586.00;5053364;28;20194;-79
2023/09/09 04:20:01;;;;;;;0.00;0.00;;;;;;;16.08;98.62;100589.22;5054551;28;20191;-79
2023/09/09 04:22:26;;;;;;;0.17;0.17;;;;;;;16.02;98.60;100585.88;5053220;28;20183;-79
2023/09/09 04:24:53;;;;;;;0.10;0.10;;;;;;;15.95;98.45;100579.34;5054876;28;20223;-79
2023/09/09 04:27:19;;;;;;;0.37;0.37;;;;;;;15.95;98.48;100584.84;5053297;28;20202;-79
2023/09/09 04:29:44;;;;;;;0.00;0.00;;;;;;;15.99;98.59;100586.56;5054407;28;20194;-79
2023/09/09 04:32:10;;;;;;;0.67;0.67;;;;;;;16.05;98.50;100601.72;5053259;28;20210;-80
2023/09/09 04:34:35;;;;;;;0.30;0.30;;;;;;;16.01;97.80;100589.78;5054371;28;20648;-80
2023/09/09 04:37:02;;;;;;;0.20;0.20;;;;;;;15.93;98.08;100587.97;5054971;28;20175;-79
2023/09/09 04:39:27;;;;;;;0.13;0.13;;;;;;;15.82;98.42;100592.31;5054361;28;20175;-79
2023/09/09 04:41:52;;;;;;;0.00;0.00;;;;;;;15.88;98.46;100593.69;5053076;28;20190;-79
2023/09/09 04:44:18;;;;;;;0.17;0.17;;;;;;;15.90;98.64;100602.41;5054415;28;20598;-79
2023/09/09 04:46:43;;;;;;;0.60;0.60;;;;;;;15.94;98.96;100614.38;5053468;28;20206;-79
2023/09/09 04:49:08;;;;;;;0.00;0.00;;;;;;;15.86;98.52;100601.50;5053752;28;20194;-79
2023/09/09 04:51:33;;;;;;;0.00;0.00;;;;;;;15.90;98.52;100605.16;5054360;28;20271;-79
2023/09/09 04:53:59;;;;;;;0.00;0.00;;;;;;;15.93;98.49;100606.44;5053376;28;20190;-79
2023/09/09 04:56:24;;;;;;;0.00;0.00;;;;;;;15.89;98.54;100605.50;5053692;28;20203;-79
2023/09/09 04:58:50;;;;;;;0.00;0.00;;;;;;;15.92;98.22;100608.41;5052884;28;20533;-79
2023/09/09 05:01:15;;;;;;;0.20;0.20;;;;;;;15.95;98.61;100607.72;5053916;28;20207;-79
2023/09/09 05:03:40;;;;;;;0.07;0.07;;;;;;;15.92;98.42;100607.59;5053870;28;20179;-79
2023/09/09 05:06:05;;;;;;;0.00;0.00;;;;;;;15.92;98.58;100605.66;5040884;28;20291;-79
2023/09/09 05:08:31;;;;;;;0.57;0.57;;;;;;;15.94;98.55;100605.31;5052508;28;20676;-80
2023/09/09 05:10:56;;;;;;;1.37;1.27;;;;;;;15.90;98.94;100616.19;5051435;28;20182;-79
2023/09/09 05:13:22;;;;;;;10.60;1.27;;;;;;;15.89;99.19;100608.25;5049868;28;20660;-79
2023/09/09 05:15:47;;;;;;;0.00;0.00;;;;;;;15.95;99.13;100615.16;5039852;28;20840;-79
2023/09/09 05:18:13;;;;;;;0.00;0.00;;;;;;;16.06;99.10;100625.41;5037483;28;20176;-80
2023/09/09 05:20:38;;;;;;;0.73;0.73;;;;;;;16.11;98.71;100620.81;5052736;28;20183;-79
2023/09/09 05:23:03;;;;;;;0.00;0.00;;;;;;;16.16;98.46;100623.31;5045950;28;20867;-80
2023/09/09 05:25:28;;;;;;;0.00;0.00;;;;;;;16.09;98.13;100612.88;5054314;28;20215;-81
2023/09/09 05:27:54;;;;;;;0.00;0.00;;;;;;;16.08;98.24;100616.00;5051709;28;20190;-79
2023/09/09 05:30:19;;;;;;;0.00;0.00;;;;;;;16.05;98.43;100612.75;5047967;28;20178;-79
2023/09/09 05:32:44;;;;;;;0.00;0.00;;;;;;;16.09;98.65;100617.59;5052709;28;20671;-78
2023/09/09 05:35:11;;;;;;;0.37;0.37;;;;;;;16.11;98.97;100624.38;5052130;28;20249;-78
2023/09/09 05:37:36;;;;;;;0.83;0.83;;;;;;;16.15;99.14;100636.31;5051237;28;20235;-79
2023/09/09 05:40:02;;;;;;;0.47;0.47;;;;;;;16.14;99.62;100628.38;5050024;28;20182;-79
2023/09/09 05:42:28;;;;;;;0.00;0.00;;;;;;;16.21;99.67;100631.38;5050289;28;20178;-79
2023/09/09 05:44:53;;;;;;;0.00;0.00;;;;;;;16.26;99.48;100628.38;5051531;28;20203;-81
2023/09/09 05:47:18;;;;;;;0.00;0.00;;;;;;;16.35;99.54;100642.88;5051225;28;20210;-79
2023/09/09 05:49:44;;;;;;;0.10;0.10;;;;;;;16.43;99.61;100641.13;5052106;28;20281;-79
2023/09/09 05:52:09;;;;;;;0.00;0.00;;;;;;;16.52;99.59;100653.66;5044219;28;20183;-79
2023/09/09 05:54:34;;;;;;;0.00;0.00;;;;;;;16.57;99.59;100645.13;5051722;28;20645;-79
2023/09/09 05:57:00;;;;;;;0.00;0.00;;;;;;;16.61;99.29;100642.47;5048803;28;20683;-79
2023/09/09 05:59:25;;;;;;;0.00;0.00;;;;;;;16.71;99.08;100646.75;5031729;28;20183;-78
2023/09/09 06:01:51;;;;;;;0.00;0.00;;;;;;;16.75;99.02;100650.41;5034473;28;20188;-80
2023/09/09 06:04:16;;;;;;;0.17;0.17;;;;;;;16.79;98.81;100652.16;5035453;28;20187;-80
2023/09/09 06:06:44;;;;;;;0.00;0.00;;;;;;;16.82;98.70;100651.47;5047942;28;20203;-80
2023/09/09 06:09:10;;;;;;;0.00;0.00;;;;;;;16.89;98.25;100650.84;5037437;28;20214;-80
2023/09/09 06:11:35;;;;;;;0.00;0.00;;;;;;;16.98;98.10;100648.78;5053061;28;20243;-79
2023/09/09 06:14:00;;;;;;;0.23;0.23;;;;;;;17.06;97.76;100649.75;5059588;28;20186;-80
2023/09/09 06:16:26;;;;;;;0.47;0.47;;;;;;;17.09;97.13;100644.38;5059182;28;20218;-80
2023/09/09 06:18:51;;;;;;;0.00;0.00;;;;;;;17.19;96.83;100651.34;5043031;28;20254;-80
2023/09/09 06:21:16;;;;;;;0.10;0.10;;;;;;;17.30;96.32;100648.88;5039104;28;20735;-80
2023/09/09 06:23:42;;;;;;;0.20;0.20;;;;;;;17.42;95.97;100654.34;5035692;28;20207;-79
2023/09/09 06:26:07;;;;;;;0.00;0.00;;;;;;;17.50;95.20;100656.16;5042240;28;20211;-80
2023/09/09 06:28:33;;;;;;;0.30;0.30;;;;;;;17.63;94.18;100651.38;5040187;28;20184;-80
2023/09/09 06:30:59;;;;;;;0.00;0.00;;;;;;;17.80;93.13;100657.41;5050522;28;20187;-80
2023/09/09 06:33:24;;;;;;;0.20;0.20;;;;;;;17.89;92.04;100650.91;5038810;28;20172;-80
2023/09/09 06:35:50;;;;;;;0.30;0.30;;;;;;;17.89;91.57;100646.19;5054970;28;20219;-80
2023/09/09 06:38:16;;;;;;;0.70;0.70;;;;;;;18.02;90.80;100644.13;5057509;28;20186;-80
2023/09/09 06:40:45;;;;;;;0.10;0.10;;;;;;;18.06;90.84;100647.78;5051053;28;20176;-80
2023/09/09 06:43:13;;;;;;;0.37;0.37;;;;;;;18.14;90.66;100655.91;5042187;28;20186;-80
2023/09/09 06:45:38;;;;;;;0.00;0.00;;;;;;;18.28;90.03;100654.66;5048655;28;20203;-81
2023/09/09 06:48:04;;;;;;;0.00;0.00;;;;;;;18.28;89.89;100663.75;5057212;28;20217;-80
2023/09/09 06:50:29;;;;;;;0.00;0.00;;;;;;;18.29;89.25;100662.59;5040741;28;20218;-80
2023/09/09 06:52:54;;;;;;;0.37;0.37;;;;;;;18.33;88.96;100657.94;5039306;28;20176;-80
2023/09/09 06:55:20;;;;;;;0.00;0.00;;;;;;;18.41;88.94;100668.03;5039969;28;20258;-80
2023/09/09 06:57:46;;;;;;;1.60;1.50;;;;;;;18.56;88.03;100666.41;5044534;28;20184;-79
2023/09/09 07:00:12;;;;;;;0.30;0.30;;;;;;;18.75;87.12;100673.97;5037472;28;20263;-80
2023/09/09 07:02:39;;;;;;;0.40;0.40;;;;;;;18.85;86.37;100665.13;5034199;28;20212;-80
2023/09/09 07:05:05;;;;;;;0.33;0.33;;;;;;;18.97;86.06;100672.50;5039726;28;20198;-80
2023/09/09 07:07:30;;;;;;;0.00;0.00;;;;;;;19.08;85.91;100670.72;5038631;28;20192;-79
2023/09/09 07:09:55;;;;;;;0.00;0.00;;;;;;;19.16;85.71;100666.16;5039209;28;20179;-80
2023/09/09 07:12:20;;;;;;;0.00;0.00;;;;;;;19.28;85.84;100671.56;5037204;28;20233;-79
2023/09/09 07:14:46;;;;;;;0.57;0.57;;;;;;;19.32;85.35;100670.47;5039873;28;20176;-79
2023/09/09 07:17:11;;;;;;;0.10;0.10;;;;;;;19.42;85.21;100666.31;5039724;28;20180;-80
2023/09/09 07:19:36;;;;;;;0.10;0.10;;;;;;;19.37;84.91;100660.25;5039163;28;20183;-80
2023/09/09 07:22:02;;;;;;;0.00;0.00;;;;;;;19.37;85.43;100661.03;5046906;28;20179;-82
2023/09/09 07:24:27;;;;;;;0.00;0.00;;;;;;;19.38;85.42;100665.41;5045394;28;20253;-81
2023/09/09 07:26:53;;;;;;;0.00;0.00;;;;;;;19.49;85.95;100665.63;5059718;28;20279;-83
2023/09/09 07:29:18;;;;;;;0.00;0.00;;;;;;;19.55;86.10;100669.75;5058969;28;20193;-81
2023/09/09 07:31:43;;;;;;;0.00;0.00;;;;;;;19.67;86.53;100675.13;5057673;28;20175;-82
2023/09/09 07:34:08;;;;;;;0.90;0.90;;;;;;;19.87;86.21;100684.22;5050596;28;20347;-81
2023/09/09 07:36:34;;;;;;;0.00;0.00;;;;;;;20.04;85.41;100686.50;5040976;28;20198;-81
2023/09/09 07:39:00;;;;;;;0.57;0.47;;;;;;;20.18;85.80;100686.75;5056073;28;20191;-81
2023/09/09 07:41:25;;;;;;;0.17;0.17;;;;;;;20.38;85.75;100692.22;5057734;28;20230;-81
2023/09/09 07:43:50;;;;;;;0.00;0.00;;;;;;;20.51;85.12;100690.88;5055114;28;20207;-80
2023/09/09 07:46:16;;;;;;;0.20;0.13;;;;;;;20.62;85.70;100699.38;5055037;28;20236;-80
2023/09/09 07:48:41;;;;;;;1.00;0.83;;;;;;;20.88;84.92;100704.13;5056153;28;20206;-80
2023/09/09 07:51:07;;;;;;;0.00;0.00;;;;;;;21.05;83.76;100692.47;5047147;28;20214;-80
2023/09/09 07:53:32;;;;;;;0.00;0.00;;;;;;;21.16;83.46;100687.06;5041263;28;20190;-80
2023/09/09 07:55:58;;;;;;;0.00;0.00;;;;;;;21.23;83.36;100690.72;5055229;28;20214;-80
2023/09/09 07:58:23;;;;;;;0.00;0.00;;;;;;;21.39;82.92;100696.91;5056496;28;20619;-80
2023/09/09 08:00:58;;;;;;;0.00;0.00;;;;;;;21.54;82.84;100697.88;5056524;28;20380;-81
2023/09/09 08:03:23;;;;;;;0.00;0.00;;;;;;;21.63;82.26;100697.59;5050173;28;20186;-79
2023/09/09 08:05:53;;;;;;;0.70;0.70;;;;;;;21.78;81.61;100693.78;5052877;28;20347;-79
2023/09/09 08:08:18;;;;;;;0.73;0.43;;;;;;;21.98;80.59;100699.91;5051132;28;20190;-79
2023/09/09 08:10:44;;;;;;;1.07;0.57;;;;;;;22.11;80.36;100695.72;5052859;28;20291;-79
2023/09/09 08:13:09;;;;;;;0.10;0.10;;;;;;;22.26;79.92;100699.41;5052755;28;20238;-79
2023/09/09 08:15:34;;;;;;;0.00;0.00;;;;;;;22.44;79.86;100697.59;5052847;28;20596;-80
2023/09/09 08:18:00;;;;;;;0.40;0.40;;;;;;;22.60;78.78;100702.09;5052693;28;20523;-82
2023/09/09 08:20:25;;;;;;;0.00;0.00;;;;;;;22.56;78.56;100688.13;5052770;28;20267;-79
2023/09/09 08:22:50;;;;;;;0.00;0.00;;;;;;;22.73;77.66;100689.47;5053131;28;20188;-79
2023/09/09 08:25:16;;;;;;;0.73;0.73;;;;;;;22.90;77.49;100696.34;5052951;28;20226;-79
2023/09/09 08:27:41;;;;;;;0.00;0.00;;;;;;;23.08;77.58;100695.25;5053013;28;20555;-79
2023/09/09 08:30:07;;;;;;;0.10;0.10;;;;;;;23.24;77.68;100697.72;5052362;28;20181;-79
2023/09/09 08:32:33;;;;;;;0.40;0.40;;;;;;;23.43;77.04;100693.81;5052977;28;20194;-79
2023/09/09 08:34:59;;;;;;;0.00;0.00;;;;;;;23.63;74.76;100695.13;5052573;28;20210;-79
2023/09/09 08:37:25;;;;;;;0.70;0.70;;;;;;;23.84;73.90;100693.56;5053107;28;20182;-79
2023/09/09 08:39:52;;;;;;;1.17;1.17;;;;;;;24.19;71.28;100690.84;5054709;28;20205;-80
2023/09/09 08:42:31;;;;;;;0.80;0.80;;;;;;;24.44;70.42;100701.22;5055524;28;20197;-80
2023/09/09 08:45:11;;;;;;;0.40;0.40;;;;;;;24.68;69.32;100696.81;5055625;28;20590;-80
2023/09/09 08:47:38;;;;;;;1.53;1.43;;;;;;;24.71;68.01;100680.03;5053955;28;20214;-80
2023/09/09 08:50:05;;;;;;;1.57;1.47;;;;;;;24.94;67.15;100679.59;5054860;28;20274;-81
2023/09/09 08:52:30;;;;;;;0.20;0.20;;;;;;;25.20;67.64;100693.13;5053979;28;20297;-81
2023/09/09 08:54:56;;;;;;;1.27;1.10;;;;;;;25.18;66.40;100663.97;5054540;28;20700;-80
2023/09/09 08:57:22;;;;;;;0.40;0.40;;;;;;;25.19;64.75;100652.38;5055485;28;20203;-80
2023/09/09 08:59:48;;;;;;;1.17;1.07;;;;;;;25.30;65.36;100665.50;5054395;28;20237;-80
2023/09/09 09:02:15;;;;;;;0.47;0.47;;;;;;;25.40;64.56;100659.06;5053435;28;20184;-80
2023/09/09 09:04:41;;;;;;;0.47;0.47;;;;;;;25.35;63.89;100643.53;5054915;28;20205;-80
2023/09/09 09:07:07;;;;;;;0.00;0.00;;;;;;;25.59;64.63;100658.56;5054730;28;20294;-80
2023/09/09 09:09:34;;;;;;;0.07;0.07;;;;;;;25.66;63.12;100641.75;5055415;28;20211;-81
2023/09/09 09:12:03;;;;;;;0.53;0.53;;;;;;;25.65;63.91;100650.53;5055606;28;20179;-81
2023/09/09 09:14:28;;;;;;;0.00;0.00;;;;;;;25.87;62.74;100649.22;5054220;28;20213;-80
2023/09/09 09:16:54;;;;;;;0.00;0.00;;;;;;;25.93;61.93;100636.38;5055629;28;20681;-80
2023/09/09 09:19:30;;;;;;;1.93;1.83;;;;;;;25.95;62.79;100635.97;5055920;28;20202;-80
2023/09/09 09:21:56;;;;;;;0.53;0.47;;;;;;;26.07;60.96;100622.28;5055850;28;20262;-80
2023/09/09 09:24:25;;;;;;;1.67;1.57;;;;;;;26.00;59.88;100610.31;5054628;28;20187;-80
2023/09/09 09:26:50;;;;;;;1.47;1.37;;;;;;;26.18;60.63;100622.16;5054561;28;20360;-81
2023/09/09 09:29:15;;;;;;;0.73;0.73;;;;;;;26.29;58.19;100591.25;5055767;28;20243;-80
2023/09/09 09:31:41;;;;;;;0.53;0.53;;;;;;;26.39;56.51;100596.00;5055422;28;20233;-80
2023/09/09 09:34:08;;;;;;;1.67;1.23;;;;;;;26.50;57.28;100596.69;5050081;28;20650;-81
2023/09/09 09:36:34;;;;;;;0.63;0.63;;;;;;;26.67;57.49;100609.69;5034244;28;20207;-80
2023/09/09 09:39:08;;;;;;;1.13;1.13;;;;;;;26.63;56.16;100586.53;5041313;28;20192;-79
2023/09/09 09:41:34;;;;;;;0.00;0.00;;;;;;;26.66;55.40;100584.91;5040933;28;20561;-80
2023/09/09 09:43:59;;;;;;;0.20;0.20;;;;;;;26.80;55.80;100579.13;5040550;28;20192;-80
2023/09/09 09:46:24;;;;;;;0.60;0.60;;;;;;;26.92;55.76;100589.00;5040657;28;20220;-80
2023/09/09 09:48:50;;;;;;;1.37;1.27;;;;;;;27.14;55.10;100595.94;5044033;28;20187;-80
2023/09/09 09:51:15;;;;;;;0.40;0.40;;;;;;;27.25;54.23;100576.16;5045891;28;20667;-80
2023/09/09 09:53:51;;;;;;;0.00;0.00;;;;;;;27.38;53.23;100565.16;5039317;28;20233;-81
2023/09/09 09:56:18;;;;;;;0.23;0.23;;;;;;;27.52;54.01;100578.97;5047040;28;20195;-80
2023/09/09 09:58:45;;;;;;;1.10;1.10;;;;;;;27.55;53.62;100572.50;5038743;28;20187;-81
2023/09/09 10:01:11;;;;;;;0.47;0.47;;;;;;;27.50;52.38;100567.38;5044796;28;20203;-81
2023/09/09 10:03:51;;;;;;;1.13;1.13;;;;;;;27.65;52.29;100567.97;5044812;28;20181;-81
2023/09/09 10:06:25;;;;;;;2.50;1.40;;;;;;;27.64;51.74;100557.97;5058743;28;20210;-80
2023/09/09 10:09:10;;;;;;;1.13;1.13;;;;;;;27.73;51.19;100561.81;5059144;28;20653;-80
2023/09/09 10:11:43;;;;;;;0.77;0.67;;;;;;;27.95;50.67;100561.47;5057722;28;20178;-81
2023/09/09 10:14:15;;;;;;;0.53;0.43;;;;;;;28.16;50.00;100552.66;5058491;28;20185;-80
2023/09/09 10:16:42;;;;;;;3.10;1.40;;;;;;;28.36;51.71;100569.59;5056862;28;20252;-81
2023/09/09 10:19:10;;;;;;;0.60;0.50;;;;;;;28.37;49.66;100543.88;5057109;28;20660;-81
2023/09/09 10:21:36;;;;;;;1.33;1.23;;;;;;;28.41;50.32;100564.25;5059062;28;20190;-81
2023/09/09 10:24:05;;;;;;;0.93;0.87;;;;;;;28.25;49.23;100524.78;5057587;28;20183;-81
2023/09/09 10:26:31;;;;;;;2.10;1.97;;;;;;;28.19;48.85;100520.09;5057395;28;20278;-80
2023/09/09 10:28:59;;;;;;;0.00;0.00;;;;;;;28.26;49.16;100525.59;5057904;28;20195;-80
2023/09/09 10:31:28;;;;;;;0.07;0.07;;;;;;;28.34;49.11;100510.97;5058932;28;20183;-81
2023/09/09 10:33:55;;;;;;;1.90;1.70;;;;;;;28.42;47.99;100523.69;5057295;28;20215;-80
2023/09/09 10:36:21;;;;;;;0.37;0.37;;;;;;;28.47;47.68;100504.72;5058460;28;20746;-79
2023/09/09 10:38:48;;;;;;;0.30;0.30;;;;;;;28.57;47.16;100507.31;5056736;28;20273;-80
2023/09/09 10:41:15;;;;;;;0.00;0.00;;;;;;;28.66;46.98;100504.72;5058722;28;20638;-81
2023/09/09 10:43:40;;;;;;;0.03;0.03;;;;;;;28.60;48.29;100503.63;5056282;28;20183;-78
2023/09/09 10:46:08;;;;;;;0.00;0.00;;;;;;;28.83;47.93;100502.75;5054527;28;20196;-78
2023/09/09 10:48:33;;;;;;;0.53;0.53;;;;;;;28.98;48.08;100511.69;5054269;28;20238;-77
2023/09/09 10:51:05;;;;;;;0.53;0.30;;;;;;;29.18;45.85;100497.56;5054431;28;20187;-78
2023/09/09 10:53:31;;;;;;;1.07;0.87;;;;;;;29.18;45.64;100494.75;5054315;28;20562;-78
2023/09/09 10:56:21;;;;;;;5.20;1.00;;;;;;;29.31;46.31;100502.06;5054380;28;20255;-77
2023/09/09 10:58:49;;;;;;;0.70;0.70;;;;;;;29.44;45.39;100487.28;5052901;28;20239;-77
2023/09/09 11:01:22;;;;;;;0.00;0.00;;;;;;;29.48;45.69;100486.00;5054633;28;20188;-77
2023/09/09 11:03:48;;;;;;;0.60;0.60;;;;;;;29.50;45.23;100479.91;5038546;28;20252;-77
2023/09/09 11:06:25;;;;;;;0.63;0.60;;;;;;;29.53;43.80;100471.41;5043154;28;20224;-78
2023/09/09 11:08:54;;;;;;;0.97;0.97;;;;;;;29.30;44.89;100463.88;5037369;28;20224;-77
2023/09/09 11:11:25;;;;;;;0.10;0.10;;;;;;;29.51;44.23;100462.63;5045999;28;20268;-77
2023/09/09 11:14:10;;;;;;;0.30;0.30;;;;;;;29.62;43.03;100453.88;5041255;28;20181;-79
2023/09/09 11:16:40;;;;;;;0.53;0.53;;;;;;;29.78;43.47;100462.28;5053682;28;20200;-78
2023/09/09 11:19:10;;;;;;;1.27;1.23;;;;;;;29.79;43.06;100460.25;5053474;28;20177;-78
2023/09/09 11:21:50;;;;;;;0.57;0.57;;;;;;;29.76;44.75;100461.94;5046881;28;20177;-78